sensor_id;sensor_type;location;lat;lon;timestamp;temperature;humidity
45489;DHT22;31236;55.026;61.042;2023-07-20T00:01:20;15.70;95.80
45489;DHT22;31236;55.026;61.042;2023-07-20T00:03:50;15.70;95.80
45489;DHT22;31236;55.026;61.042;2023-07-20T00:06:39;15.70;95.80
45489;DHT22;31236;55.026;61.042;2023-07-20T00:09:09;15.70;95.90
45489;DHT22;31236;55.026;61.042;2023-07-20T00:11:40;15.70;96.10
45489;DHT22;31236;55.026;61.042;2023-07-20T00:14:10;15.70;96.30
45489;DHT22;31236;55.026;61.042;2023-07-20T00:16:40;15.70;96.40
45489;DHT22;31236;55.026;61.042;2023-07-20T00:19:10;15.70;96.40
45489;DHT22;31236;55.026;61.042;2023-07-20T00:21:40;15.70;96.60
45489;DHT22;31236;55.026;61.042;2023-07-20T00:24:11;15.70;96.80
45489;DHT22;31236;55.026;61.042;2023-07-20T00:26:40;15.70;96.90
45489;DHT22;31236;55.026;61.042;2023-07-20T00:29:10;15.80;97.00
45489;DHT22;31236;55.026;61.042;2023-07-20T00:31:43;15.90;97.10
45489;DHT22;31236;55.026;61.042;2023-07-20T00:34:12;15.90;97.10
45489;DHT22;31236;55.026;61.042;2023-07-20T00:36:42;15.90;97.00
45489;DHT22;31236;55.026;61.042;2023-07-20T00:39:12;16.00;97.00
45489;DHT22;31236;55.026;61.042;2023-07-20T00:41:42;16.00;97.00
45489;DHT22;31236;55.026;61.042;2023-07-20T00:44:12;16.00;97.00
45489;DHT22;31236;55.026;61.042;2023-07-20T00:46:42;16.10;97.00
45489;DHT22;31236;55.026;61.042;2023-07-20T00:49:13;16.20;97.00
45489;DHT22;31236;55.026;61.042;2023-07-20T00:51:45;16.10;96.90
45489;DHT22;31236;55.026;61.042;2023-07-20T00:54:16;16.20;96.90
45489;DHT22;31236;55.026;61.042;2023-07-20T00:56:46;16.20;96.80
45489;DHT22;31236;55.026;61.042;2023-07-20T00:59:16;16.30;96.90
45489;DHT22;31236;55.026;61.042;2023-07-20T01:01:48;16.30;96.90
45489;DHT22;31236;55.026;61.042;2023-07-20T01:04:17;16.30;96.90
45489;DHT22;31236;55.026;61.042;2023-07-20T01:06:53;16.40;96.90
45489;DHT22;31236;55.026;61.042;2023-07-20T01:10:16;16.40;96.90
45489;DHT22;31236;55.026;61.042;2023-07-20T01:15:22;16.60;96.80
45489;DHT22;31236;55.026;61.042;2023-07-20T01:17:51;16.60;96.70
45489;DHT22;31236;55.026;61.042;2023-07-20T01:20:22;16.70;96.70
45489;DHT22;31236;55.026;61.042;2023-07-20T01:32:07;16.70;96.10
45489;DHT22;31236;55.026;61.042;2023-07-20T01:34:40;16.70;96.00
45489;DHT22;31236;55.026;61.042;2023-07-20T01:37:11;16.80;96.10
45489;DHT22;31236;55.026;61.042;2023-07-20T01:39:44;16.90;96.10
45489;DHT22;31236;55.026;61.042;2023-07-20T01:42:16;17.00;96.10
45489;DHT22;31236;55.026;61.042;2023-07-20T01:44:47;17.00;96.20
45489;DHT22;31236;55.026;61.042;2023-07-20T01:47:19;17.10;96.20
45489;DHT22;31236;55.026;61.042;2023-07-20T01:49:48;17.10;96.10
45489;DHT22;31236;55.026;61.042;2023-07-20T01:52:18;17.20;96.10
45489;DHT22;31236;55.026;61.042;2023-07-20T01:54:49;17.20;96.10
45489;DHT22;31236;55.026;61.042;2023-07-20T01:57:19;17.30;96.00
45489;DHT22;31236;55.026;61.042;2023-07-20T01:59:49;17.30;95.90
45489;DHT22;31236;55.026;61.042;2023-07-20T02:02:20;17.40;95.80
45489;DHT22;31236;55.026;61.042;2023-07-20T02:04:50;17.50;95.70
45489;DHT22;31236;55.026;61.042;2023-07-20T02:07:22;17.60;95.70
45489;DHT22;31236;55.026;61.042;2023-07-20T02:09:52;17.60;95.60
45489;DHT22;31236;55.026;61.042;2023-07-20T02:12:23;17.70;95.50
45489;DHT22;31236;55.026;61.042;2023-07-20T02:14:53;17.70;95.40
45489;DHT22;31236;55.026;61.042;2023-07-20T02:17:23;17.90;95.50
45489;DHT22;31236;55.026;61.042;2023-07-20T02:19:55;17.90;95.40
45489;DHT22;31236;55.026;61.042;2023-07-20T02:22:25;18.00;95.30
45489;DHT22;31236;55.026;61.042;2023-07-20T02:24:56;18.10;95.20
45489;DHT22;31236;55.026;61.042;2023-07-20T02:27:26;18.20;95.30
45489;DHT22;31236;55.026;61.042;2023-07-20T02:29:56;18.30;95.30
45489;DHT22;31236;55.026;61.042;2023-07-20T02:32:27;18.40;95.10
45489;DHT22;31236;55.026;61.042;2023-07-20T02:34:57;18.50;95.00
45489;DHT22;31236;55.026;61.042;2023-07-20T02:37:27;18.70;95.00
45489;DHT22;31236;55.026;61.042;2023-07-20T02:40:00;18.80;94.80
45489;DHT22;31236;55.026;61.042;2023-07-20T02:42:32;18.90;94.60
45489;DHT22;31236;55.026;61.042;2023-07-20T02:45:03;18.90;94.60
45489;DHT22;31236;55.026;61.042;2023-07-20T02:47:35;19.00;94.60
45489;DHT22;31236;55.026;61.042;2023-07-20T02:50:06;19.10;94.50
45489;DHT22;31236;55.026;61.042;2023-07-20T02:52:39;19.20;94.50
45489;DHT22;31236;55.026;61.042;2023-07-20T02:55:09;19.30;94.30
45489;DHT22;31236;55.026;61.042;2023-07-20T02:57:39;19.50;94.30
45489;DHT22;31236;55.026;61.042;2023-07-20T03:00:09;19.50;94.30
45489;DHT22;31236;55.026;61.042;2023-07-20T03:02:41;19.60;93.90
45489;DHT22;31236;55.026;61.042;2023-07-20T03:05:14;19.80;93.30
45489;DHT22;31236;55.026;61.042;2023-07-20T03:07:44;19.90;93.20
45489;DHT22;31236;55.026;61.042;2023-07-20T03:10:16;20.00;93.00
45489;DHT22;31236;55.026;61.042;2023-07-20T03:12:47;20.10;92.90
45489;DHT22;31236;55.026;61.042;2023-07-20T03:15:19;20.20;92.60
45489;DHT22;31236;55.026;61.042;2023-07-20T03:17:48;20.40;92.60
45489;DHT22;31236;55.026;61.042;2023-07-20T03:20:18;20.50;92.60
45489;DHT22;31236;55.026;61.042;2023-07-20T03:22:50;20.50;92.40
45489;DHT22;31236;55.026;61.042;2023-07-20T03:25:20;20.60;92.10
45489;DHT22;31236;55.026;61.042;2023-07-20T03:27:51;20.60;91.20
45489;DHT22;31236;55.026;61.042;2023-07-20T03:30:21;20.70;91.40
45489;DHT22;31236;55.026;61.042;2023-07-20T03:32:51;20.90;90.60
45489;DHT22;31236;55.026;61.042;2023-07-20T03:35:21;21.00;90.90
45489;DHT22;31236;55.026;61.042;2023-07-20T03:37:51;21.20;89.60
45489;DHT22;31236;55.026;61.042;2023-07-20T03:40:21;21.30;89.00
45489;DHT22;31236;55.026;61.042;2023-07-20T03:42:53;21.20;87.90
45489;DHT22;31236;55.026;61.042;2023-07-20T03:45:23;21.20;89.70
45489;DHT22;31236;55.026;61.042;2023-07-20T03:47:53;21.20;89.80
45489;DHT22;31236;55.026;61.042;2023-07-20T03:50:24;21.30;89.20
45489;DHT22;31236;55.026;61.042;2023-07-20T03:52:54;21.40;88.00
45489;DHT22;31236;55.026;61.042;2023-07-20T03:55:25;21.50;87.10
45489;DHT22;31236;55.026;61.042;2023-07-20T03:57:56;21.50;86.90
45489;DHT22;31236;55.026;61.042;2023-07-20T04:00:26;21.50;85.70
45489;DHT22;31236;55.026;61.042;2023-07-20T04:02:58;21.50;85.50
45489;DHT22;31236;55.026;61.042;2023-07-20T04:05:28;21.60;85.90
45489;DHT22;31236;55.026;61.042;2023-07-20T04:07:59;21.60;84.40
45489;DHT22;31236;55.026;61.042;2023-07-20T04:10:29;21.70;84.40
45489;DHT22;31236;55.026;61.042;2023-07-20T04:13:00;21.70;85.00
45489;DHT22;31236;55.026;61.042;2023-07-20T04:15:30;21.80;85.50
45489;DHT22;31236;55.026;61.042;2023-07-20T04:18:01;21.90;85.00
45489;DHT22;31236;55.026;61.042;2023-07-20T04:20:31;22.00;83.10
45489;DHT22;31236;55.026;61.042;2023-07-20T04:23:01;22.10;83.80
45489;DHT22;31236;55.026;61.042;2023-07-20T04:25:32;22.20;83.00
45489;DHT22;31236;55.026;61.042;2023-07-20T04:28:06;22.30;82.70
45489;DHT22;31236;55.026;61.042;2023-07-20T04:30:37;22.50;83.50
45489;DHT22;31236;55.026;61.042;2023-07-20T04:33:26;22.60;82.30
45489;DHT22;31236;55.026;61.042;2023-07-20T04:35:58;22.50;81.80
45489;DHT22;31236;55.026;61.042;2023-07-20T04:38:29;22.40;82.70
45489;DHT22;31236;55.026;61.042;2023-07-20T04:40:58;22.50;82.90
45489;DHT22;31236;55.026;61.042;2023-07-20T04:43:30;22.60;82.60
45489;DHT22;31236;55.026;61.042;2023-07-20T04:46:00;22.70;83.20
45489;DHT22;31236;55.026;61.042;2023-07-20T04:48:30;22.90;82.00
45489;DHT22;31236;55.026;61.042;2023-07-20T04:51:02;23.00;82.00
45489;DHT22;31236;55.026;61.042;2023-07-20T04:53:32;23.00;80.50
45489;DHT22;31236;55.026;61.042;2023-07-20T04:56:02;22.90;79.30
45489;DHT22;31236;55.026;61.042;2023-07-20T04:58:32;22.90;80.70
45489;DHT22;31236;55.026;61.042;2023-07-20T05:01:02;22.90;81.40
45489;DHT22;31236;55.026;61.042;2023-07-20T05:03:31;22.90;82.20
45489;DHT22;31236;55.026;61.042;2023-07-20T05:06:03;22.90;81.00
45489;DHT22;31236;55.026;61.042;2023-07-20T05:08:33;22.90;80.70
45489;DHT22;31236;55.026;61.042;2023-07-20T05:11:03;22.90;80.20
45489;DHT22;31236;55.026;61.042;2023-07-20T05:13:33;22.90;81.00
45489;DHT22;31236;55.026;61.042;2023-07-20T05:16:02;22.90;82.20
45489;DHT22;31236;55.026;61.042;2023-07-20T05:18:34;22.90;83.20
45489;DHT22;31236;55.026;61.042;2023-07-20T05:21:05;22.90;82.30
45489;DHT22;31236;55.026;61.042;2023-07-20T05:23:34;22.90;81.10
45489;DHT22;31236;55.026;61.042;2023-07-20T05:26:04;22.80;82.60
45489;DHT22;31236;55.026;61.042;2023-07-20T05:28:33;22.70;81.90
45489;DHT22;31236;55.026;61.042;2023-07-20T05:31:03;22.70;81.80
45489;DHT22;31236;55.026;61.042;2023-07-20T05:33:33;22.70;80.50
45489;DHT22;31236;55.026;61.042;2023-07-20T05:36:04;22.60;82.10
45489;DHT22;31236;55.026;61.042;2023-07-20T05:38:34;22.60;81.30
45489;DHT22;31236;55.026;61.042;2023-07-20T05:41:03;22.60;80.70
45489;DHT22;31236;55.026;61.042;2023-07-20T05:43:34;22.60;80.90
45489;DHT22;31236;55.026;61.042;2023-07-20T05:46:05;22.60;81.70
45489;DHT22;31236;55.026;61.042;2023-07-20T05:48:34;22.60;81.80
45489;DHT22;31236;55.026;61.042;2023-07-20T05:51:04;22.60;82.00
45489;DHT22;31236;55.026;61.042;2023-07-20T05:53:36;22.60;81.40
45489;DHT22;31236;55.026;61.042;2023-07-20T05:56:05;22.50;82.20
45489;DHT22;31236;55.026;61.042;2023-07-20T05:58:37;22.40;82.60
45489;DHT22;31236;55.026;61.042;2023-07-20T06:01:09;22.40;82.60
45489;DHT22;31236;55.026;61.042;2023-07-20T06:03:38;22.40;82.00
45489;DHT22;31236;55.026;61.042;2023-07-20T06:06:08;22.40;82.20
45489;DHT22;31236;55.026;61.042;2023-07-20T06:08:39;22.40;83.30
45489;DHT22;31236;55.026;61.042;2023-07-20T06:11:09;22.50;84.80
45489;DHT22;31236;55.026;61.042;2023-07-20T06:13:39;22.60;84.90
45489;DHT22;31236;55.026;61.042;2023-07-20T06:16:10;22.60;84.20
45489;DHT22;31236;55.026;61.042;2023-07-20T06:18:40;22.80;83.80
45489;DHT22;31236;55.026;61.042;2023-07-20T06:21:10;23.00;81.90
45489;DHT22;31236;55.026;61.042;2023-07-20T06:23:40;23.10;82.50
45489;DHT22;31236;55.026;61.042;2023-07-20T06:26:10;23.30;82.00
45489;DHT22;31236;55.026;61.042;2023-07-20T06:28:41;23.40;81.20
45489;DHT22;31236;55.026;61.042;2023-07-20T06:31:10;23.30;80.50
45489;DHT22;31236;55.026;61.042;2023-07-20T06:33:40;23.40;78.90
45489;DHT22;31236;55.026;61.042;2023-07-20T06:36:10;23.50;77.80
45489;DHT22;31236;55.026;61.042;2023-07-20T06:38:41;23.70;77.90
45489;DHT22;31236;55.026;61.042;2023-07-20T06:41:11;24.00;73.60
45489;DHT22;31236;55.026;61.042;2023-07-20T06:43:40;24.20;74.70
45489;DHT22;31236;55.026;61.042;2023-07-20T06:46:10;24.40;73.20
45489;DHT22;31236;55.026;61.042;2023-07-20T06:48:40;24.60;70.70
45489;DHT22;31236;55.026;61.042;2023-07-20T06:51:12;24.70;74.40
45489;DHT22;31236;55.026;61.042;2023-07-20T06:53:41;24.80;72.60
45489;DHT22;31236;55.026;61.042;2023-07-20T06:56:11;24.80;69.10
45489;DHT22;31236;55.026;61.042;2023-07-20T06:58:41;24.80;70.40
45489;DHT22;31236;55.026;61.042;2023-07-20T07:01:11;24.80;69.60
45489;DHT22;31236;55.026;61.042;2023-07-20T07:03:42;24.80;69.90
45489;DHT22;31236;55.026;61.042;2023-07-20T07:06:14;24.90;71.10
45489;DHT22;31236;55.026;61.042;2023-07-20T07:08:43;24.90;69.80
45489;DHT22;31236;55.026;61.042;2023-07-20T07:11:13;24.80;68.20
45489;DHT22;31236;55.026;61.042;2023-07-20T07:13:45;24.70;69.00
45489;DHT22;31236;55.026;61.042;2023-07-20T07:16:18;24.80;69.70
45489;DHT22;31236;55.026;61.042;2023-07-20T07:18:50;24.80;69.00
45489;DHT22;31236;55.026;61.042;2023-07-20T07:21:21;25.00;69.20
45489;DHT22;31236;55.026;61.042;2023-07-20T07:23:50;25.20;64.60
45489;DHT22;31236;55.026;61.042;2023-07-20T07:26:22;25.30;66.50
45489;DHT22;31236;55.026;61.042;2023-07-20T07:28:53;25.40;68.50
45489;DHT22;31236;55.026;61.042;2023-07-20T07:31:45;25.50;62.80
45489;DHT22;31236;55.026;61.042;2023-07-20T07:34:14;25.60;64.30
45489;DHT22;31236;55.026;61.042;2023-07-20T07:36:44;25.60;64.40
45489;DHT22;31236;55.026;61.042;2023-07-20T07:39:14;25.70;62.80
45489;DHT22;31236;55.026;61.042;2023-07-20T07:41:44;25.60;62.50
45489;DHT22;31236;55.026;61.042;2023-07-20T07:44:13;25.50;63.20
45489;DHT22;31236;55.026;61.042;2023-07-20T07:46:43;25.60;64.80
45489;DHT22;31236;55.026;61.042;2023-07-20T07:49:16;25.70;61.10
45489;DHT22;31236;55.026;61.042;2023-07-20T07:51:46;25.70;62.20
45489;DHT22;31236;55.026;61.042;2023-07-20T07:54:17;25.80;64.00
45489;DHT22;31236;55.026;61.042;2023-07-20T07:56:48;25.80;60.20
45489;DHT22;31236;55.026;61.042;2023-07-20T07:59:18;25.70;58.30
45489;DHT22;31236;55.026;61.042;2023-07-20T08:01:48;25.50;57.80
45489;DHT22;31236;55.026;61.042;2023-07-20T08:04:18;25.30;56.30
45489;DHT22;31236;55.026;61.042;2023-07-20T08:06:47;25.40;58.40
45489;DHT22;31236;55.026;61.042;2023-07-20T08:12:08;25.60;54.60
45489;DHT22;31236;55.026;61.042;2023-07-20T08:14:38;25.80;56.30
45489;DHT22;31236;55.026;61.042;2023-07-20T08:17:08;25.90;52.00
45489;DHT22;31236;55.026;61.042;2023-07-20T08:19:38;26.00;52.70
45489;DHT22;31236;55.026;61.042;2023-07-20T08:22:08;26.10;52.30
45489;DHT22;31236;55.026;61.042;2023-07-20T08:24:59;26.10;53.30
45489;DHT22;31236;55.026;61.042;2023-07-20T08:27:30;26.20;51.80
45489;DHT22;31236;55.026;61.042;2023-07-20T08:30:00;26.30;51.40
45489;DHT22;31236;55.026;61.042;2023-07-20T08:32:51;26.30;52.20
45489;DHT22;31236;55.026;61.042;2023-07-20T08:35:22;26.30;52.10
45489;DHT22;31236;55.026;61.042;2023-07-20T08:37:52;26.30;53.20
45489;DHT22;31236;55.026;61.042;2023-07-20T08:40:21;26.40;54.40
45489;DHT22;31236;55.026;61.042;2023-07-20T08:42:52;26.50;53.30
45489;DHT22;31236;55.026;61.042;2023-07-20T08:45:23;26.70;55.20
45489;DHT22;31236;55.026;61.042;2023-07-20T08:47:57;26.90;50.30
45489;DHT22;31236;55.026;61.042;2023-07-20T08:50:31;26.90;53.60
45489;DHT22;31236;55.026;61.042;2023-07-20T08:53:05;27.00;51.10
45489;DHT22;31236;55.026;61.042;2023-07-20T08:55:36;27.10;50.60
45489;DHT22;31236;55.026;61.042;2023-07-20T08:58:09;27.30;53.90
45489;DHT22;31236;55.026;61.042;2023-07-20T09:00:43;27.30;50.10
45489;DHT22;31236;55.026;61.042;2023-07-20T09:03:16;27.50;51.70
45489;DHT22;31236;55.026;61.042;2023-07-20T09:06:18;27.60;49.70
45489;DHT22;31236;55.026;61.042;2023-07-20T09:08:19;27.60;49.90
45489;DHT22;31236;55.026;61.042;2023-07-20T09:10:52;27.60;50.40
45489;DHT22;31236;55.026;61.042;2023-07-20T09:13:25;27.40;49.90
45489;DHT22;31236;55.026;61.042;2023-07-20T09:15:58;27.30;51.60
45489;DHT22;31236;55.026;61.042;2023-07-20T09:18:32;27.30;51.70
45489;DHT22;31236;55.026;61.042;2023-07-20T09:21:03;27.20;52.20
45489;DHT22;31236;55.026;61.042;2023-07-20T09:23:35;27.20;52.40
45489;DHT22;31236;55.026;61.042;2023-07-20T09:26:26;27.30;54.10
45489;DHT22;31236;55.026;61.042;2023-07-20T09:28:57;27.40;53.60
45489;DHT22;31236;55.026;61.042;2023-07-20T09:31:27;27.50;54.70
45489;DHT22;31236;55.026;61.042;2023-07-20T09:33:59;27.50;52.60
45489;DHT22;31236;55.026;61.042;2023-07-20T09:36:29;27.40;50.80
45489;DHT22;31236;55.026;61.042;2023-07-20T09:39:01;27.40;52.90
45489;DHT22;31236;55.026;61.042;2023-07-20T09:44:22;27.60;52.10
45489;DHT22;31236;55.026;61.042;2023-07-20T09:46:54;27.60;51.70
45489;DHT22;31236;55.026;61.042;2023-07-20T09:50:00;27.70;52.40
45489;DHT22;31236;55.026;61.042;2023-07-20T09:52:02;27.80;51.90
45489;DHT22;31236;55.026;61.042;2023-07-20T09:54:35;27.90;52.10
45489;DHT22;31236;55.026;61.042;2023-07-20T09:57:07;28.10;52.50
45489;DHT22;31236;55.026;61.042;2023-07-20T09:59:42;28.10;51.20
45489;DHT22;31236;55.026;61.042;2023-07-20T10:02:48;28.00;50.90
45489;DHT22;31236;55.026;61.042;2023-07-20T10:04:47;27.70;50.80
45489;DHT22;31236;55.026;61.042;2023-07-20T10:07:20;27.40;52.50
45489;DHT22;31236;55.026;61.042;2023-07-20T10:09:56;27.10;53.20
45489;DHT22;31236;55.026;61.042;2023-07-20T10:12:31;26.90;52.70
45489;DHT22;31236;55.026;61.042;2023-07-20T10:15:58;26.80;53.60
45489;DHT22;31236;55.026;61.042;2023-07-20T10:20:49;27.20;53.30
45489;DHT22;31236;55.026;61.042;2023-07-20T10:23:22;27.40;53.70
45489;DHT22;31236;55.026;61.042;2023-07-20T10:25:56;27.40;54.10
45489;DHT22;31236;55.026;61.042;2023-07-20T10:28:28;27.30;53.70
45489;DHT22;31236;55.026;61.042;2023-07-20T10:31:00;27.30;53.60
45489;DHT22;31236;55.026;61.042;2023-07-20T10:33:32;27.30;52.20
45489;DHT22;31236;55.026;61.042;2023-07-20T10:36:05;27.50;54.30
45489;DHT22;31236;55.026;61.042;2023-07-20T10:38:58;27.70;53.50
45489;DHT22;31236;55.026;61.042;2023-07-20T10:42:24;27.90;52.10
45489;DHT22;31236;55.026;61.042;2023-07-20T10:44:20;28.10;51.60
45489;DHT22;31236;55.026;61.042;2023-07-20T10:47:25;28.20;49.60
45489;DHT22;31236;55.026;61.042;2023-07-20T10:50:01;28.30;49.20
45489;DHT22;31236;55.026;61.042;2023-07-20T10:51:59;28.50;49.10
45489;DHT22;31236;55.026;61.042;2023-07-20T10:57:25;28.70;49.60
45489;DHT22;31236;55.026;61.042;2023-07-20T11:00:30;28.80;49.70
45489;DHT22;31236;55.026;61.042;2023-07-20T11:02:28;28.80;49.20
45489;DHT22;31236;55.026;61.042;2023-07-20T11:05:03;28.80;48.00
45489;DHT22;31236;55.026;61.042;2023-07-20T11:07:53;28.90;47.00
45489;DHT22;31236;55.026;61.042;2023-07-20T11:10:23;28.90;46.70
45489;DHT22;31236;55.026;61.042;2023-07-20T11:16:04;29.00;48.80
45489;DHT22;31236;55.026;61.042;2023-07-20T11:18:36;28.70;45.90
45489;DHT22;31236;55.026;61.042;2023-07-20T11:21:08;28.50;44.10
45489;DHT22;31236;55.026;61.042;2023-07-20T11:23:38;28.40;44.40
45489;DHT22;31236;55.026;61.042;2023-07-20T11:26:09;28.50;44.00
45489;DHT22;31236;55.026;61.042;2023-07-20T11:28:41;28.60;44.30
45489;DHT22;31236;55.026;61.042;2023-07-20T11:31:14;28.70;45.90
45489;DHT22;31236;55.026;61.042;2023-07-20T11:33:43;28.50;45.70
45489;DHT22;31236;55.026;61.042;2023-07-20T11:36:13;28.30;44.70
45489;DHT22;31236;55.026;61.042;2023-07-20T11:38:43;28.10;46.80
45489;DHT22;31236;55.026;61.042;2023-07-20T11:41:14;27.90;45.50
45489;DHT22;31236;55.026;61.042;2023-07-20T11:43:46;27.60;45.40
45489;DHT22;31236;55.026;61.042;2023-07-20T11:46:16;27.50;45.40
45489;DHT22;31236;55.026;61.042;2023-07-20T11:48:46;27.40;45.80
45489;DHT22;31236;55.026;61.042;2023-07-20T11:51:17;27.40;46.20
45489;DHT22;31236;55.026;61.042;2023-07-20T11:53:47;27.50;45.60
45489;DHT22;31236;55.026;61.042;2023-07-20T11:56:19;27.80;46.10
45489;DHT22;31236;55.026;61.042;2023-07-20T11:58:50;28.10;46.70
45489;DHT22;31236;55.026;61.042;2023-07-20T12:01:19;28.20;45.30
45489;DHT22;31236;55.026;61.042;2023-07-20T12:03:52;28.10;45.80
45489;DHT22;31236;55.026;61.042;2023-07-20T12:06:24;27.90;46.60
45489;DHT22;31236;55.026;61.042;2023-07-20T12:11:44;27.50;46.30
45489;DHT22;31236;55.026;61.042;2023-07-20T12:14:14;27.70;46.60
45489;DHT22;31236;55.026;61.042;2023-07-20T12:16:52;27.90;47.10
45489;DHT22;31236;55.026;61.042;2023-07-20T12:19:24;28.10;46.70
45489;DHT22;31236;55.026;61.042;2023-07-20T12:21:57;28.30;46.50
45489;DHT22;31236;55.026;61.042;2023-07-20T12:24:27;28.40;44.70
45489;DHT22;31236;55.026;61.042;2023-07-20T12:26:57;28.50;43.90
45489;DHT22;31236;55.026;61.042;2023-07-20T12:29:27;28.40;42.70
45489;DHT22;31236;55.026;61.042;2023-07-20T12:31:59;28.20;44.20
45489;DHT22;31236;55.026;61.042;2023-07-20T12:34:30;27.90;44.60
45489;DHT22;31236;55.026;61.042;2023-07-20T12:37:03;27.60;44.30
45489;DHT22;31236;55.026;61.042;2023-07-20T12:39:34;27.40;44.80
45489;DHT22;31236;55.026;61.042;2023-07-20T12:42:05;27.20;45.70
45489;DHT22;31236;55.026;61.042;2023-07-20T12:44:34;27.10;46.00
45489;DHT22;31236;55.026;61.042;2023-07-20T12:47:06;27.00;47.10
45489;DHT22;31236;55.026;61.042;2023-07-20T12:49:36;26.90;46.20
45489;DHT22;31236;55.026;61.042;2023-07-20T12:52:07;26.90;46.20
45489;DHT22;31236;55.026;61.042;2023-07-20T12:54:37;26.90;46.70
45489;DHT22;31236;55.026;61.042;2023-07-20T12:59:38;27.00;47.20
45489;DHT22;31236;55.026;61.042;2023-07-20T13:02:10;26.90;47.80
45489;DHT22;31236;55.026;61.042;2023-07-20T13:04:42;26.80;48.80
45489;DHT22;31236;55.026;61.042;2023-07-20T13:07:11;26.70;48.50
45489;DHT22;31236;55.026;61.042;2023-07-20T13:09:43;26.60;49.00
45489;DHT22;31236;55.026;61.042;2023-07-20T13:12:13;26.50;49.50
45489;DHT22;31236;55.026;61.042;2023-07-20T13:14:42;26.50;49.30
45489;DHT22;31236;55.026;61.042;2023-07-20T13:17:12;26.40;50.30
45489;DHT22;31236;55.026;61.042;2023-07-20T13:19:44;26.40;49.20
45489;DHT22;31236;55.026;61.042;2023-07-20T13:22:14;26.30;48.60
45489;DHT22;31236;55.026;61.042;2023-07-20T13:24:45;26.30;48.50
45489;DHT22;31236;55.026;61.042;2023-07-20T13:27:16;26.20;48.40
45489;DHT22;31236;55.026;61.042;2023-07-20T13:29:46;26.10;48.50
45489;DHT22;31236;55.026;61.042;2023-07-20T13:32:17;26.10;48.90
45489;DHT22;31236;55.026;61.042;2023-07-20T13:34:47;26.00;49.00
45489;DHT22;31236;55.026;61.042;2023-07-20T13:37:17;26.00;49.60
45489;DHT22;31236;55.026;61.042;2023-07-20T13:39:48;25.90;49.90
45489;DHT22;31236;55.026;61.042;2023-07-20T13:42:37;25.90;49.00
45489;DHT22;31236;55.026;61.042;2023-07-20T13:45:10;25.90;48.10
45489;DHT22;31236;55.026;61.042;2023-07-20T13:47:40;25.80;47.20
45489;DHT22;31236;55.026;61.042;2023-07-20T13:50:10;25.80;47.10
45489;DHT22;31236;55.026;61.042;2023-07-20T13:52:39;25.70;47.30
45489;DHT22;31236;55.026;61.042;2023-07-20T13:55:09;25.70;48.00
45489;DHT22;31236;55.026;61.042;2023-07-20T13:57:39;25.60;48.10
45489;DHT22;31236;55.026;61.042;2023-07-20T14:00:11;25.50;48.70
45489;DHT22;31236;55.026;61.042;2023-07-20T14:02:41;25.50;48.10
45489;DHT22;31236;55.026;61.042;2023-07-20T14:05:10;25.50;47.80
45489;DHT22;31236;55.026;61.042;2023-07-20T14:07:42;25.50;47.50
45489;DHT22;31236;55.026;61.042;2023-07-20T14:10:12;25.50;47.70
45489;DHT22;31236;55.026;61.042;2023-07-20T14:12:41;25.50;48.00
45489;DHT22;31236;55.026;61.042;2023-07-20T14:15:12;25.60;47.80
45489;DHT22;31236;55.026;61.042;2023-07-20T14:17:42;25.70;47.40
45489;DHT22;31236;55.026;61.042;2023-07-20T14:20:13;25.70;46.10
45489;DHT22;31236;55.026;61.042;2023-07-20T14:22:43;25.70;45.50
45489;DHT22;31236;55.026;61.042;2023-07-20T14:25:15;25.60;45.40
45489;DHT22;31236;55.026;61.042;2023-07-20T14:27:45;25.60;45.50
45489;DHT22;31236;55.026;61.042;2023-07-20T14:30:14;25.50;45.10
45489;DHT22;31236;55.026;61.042;2023-07-20T14:32:44;25.50;45.30
45489;DHT22;31236;55.026;61.042;2023-07-20T14:35:16;25.50;45.90
45489;DHT22;31236;55.026;61.042;2023-07-20T14:37:47;25.50;45.10
45489;DHT22;31236;55.026;61.042;2023-07-20T14:40:17;25.40;45.40
45489;DHT22;31236;55.026;61.042;2023-07-20T14:42:48;25.40;47.30
45489;DHT22;31236;55.026;61.042;2023-07-20T14:45:19;25.20;46.80
45489;DHT22;31236;55.026;61.042;2023-07-20T14:47:51;25.10;46.80
45489;DHT22;31236;55.026;61.042;2023-07-20T14:50:23;25.00;47.00
45489;DHT22;31236;55.026;61.042;2023-07-20T14:52:53;24.90;47.10
45489;DHT22;31236;55.026;61.042;2023-07-20T14:55:22;24.70;47.10
45489;DHT22;31236;55.026;61.042;2023-07-20T14:57:52;24.60;47.90
45489;DHT22;31236;55.026;61.042;2023-07-20T15:00:24;24.40;47.50
45489;DHT22;31236;55.026;61.042;2023-07-20T15:02:57;24.30;48.20
45489;DHT22;31236;55.026;61.042;2023-07-20T15:05:27;24.30;48.00
45489;DHT22;31236;55.026;61.042;2023-07-20T15:07:57;24.20;48.20
45489;DHT22;31236;55.026;61.042;2023-07-20T15:10:31;24.10;48.50
45489;DHT22;31236;55.026;61.042;2023-07-20T15:13:04;24.10;48.90
45489;DHT22;31236;55.026;61.042;2023-07-20T15:15:34;23.90;48.90
45489;DHT22;31236;55.026;61.042;2023-07-20T15:18:07;23.80;48.70
45489;DHT22;31236;55.026;61.042;2023-07-20T15:20:39;23.60;48.50
45489;DHT22;31236;55.026;61.042;2023-07-20T15:23:09;23.50;48.50
45489;DHT22;31236;55.026;61.042;2023-07-20T15:25:39;23.40;48.30
45489;DHT22;31236;55.026;61.042;2023-07-20T15:28:10;23.30;47.70
45489;DHT22;31236;55.026;61.042;2023-07-20T15:30:41;23.20;47.70
45489;DHT22;31236;55.026;61.042;2023-07-20T15:33:15;23.10;47.80
45489;DHT22;31236;55.026;61.042;2023-07-20T15:35:45;23.10;48.30
45489;DHT22;31236;55.026;61.042;2023-07-20T15:38:14;23.00;48.60
45489;DHT22;31236;55.026;61.042;2023-07-20T15:40:44;22.90;48.90
45489;DHT22;31236;55.026;61.042;2023-07-20T15:43:16;22.90;49.10
45489;DHT22;31236;55.026;61.042;2023-07-20T15:45:47;22.80;49.30
45489;DHT22;31236;55.026;61.042;2023-07-20T15:48:21;22.80;49.50
45489;DHT22;31236;55.026;61.042;2023-07-20T15:50:50;22.70;50.00
45489;DHT22;31236;55.026;61.042;2023-07-20T15:53:20;22.70;50.30
45489;DHT22;31236;55.026;61.042;2023-07-20T15:56:11;22.70;50.40
45489;DHT22;31236;55.026;61.042;2023-07-20T15:58:41;22.70;50.60
45489;DHT22;31236;55.026;61.042;2023-07-20T16:01:11;22.70;51.30
45489;DHT22;31236;55.026;61.042;2023-07-20T16:03:41;22.60;50.90
45489;DHT22;31236;55.026;61.042;2023-07-20T16:06:11;22.50;51.10
45489;DHT22;31236;55.026;61.042;2023-07-20T16:08:40;22.50;50.80
45489;DHT22;31236;55.026;61.042;2023-07-20T16:11:10;22.40;50.90
45489;DHT22;31236;55.026;61.042;2023-07-20T16:13:42;22.40;51.00